Time;durP1;ratioP1;P1;durP2;ratioP2;P2;SDS_P1;SDS_P2;PMS_P1;PMS_P2;Temp;Humidity;BMP_temperature;BMP_pressure;BME280_temperature;BME280_humidity;BME280_pressure;Samples;Min_cycle;Max_cycle;Signal;HPM_P1;HPM_P2
2022/07/31 00:01:23;;;;;;;1.55;1.42;;;23.70;68.50;;;;;;5011257;28;20038;-85
2022/07/31 00:03:48;;;;;;;1.02;1.02;;;23.70;68.50;;;;;;5011477;28;20037;-84
2022/07/31 00:06:14;;;;;;;1.67;1.58;;;23.70;68.50;;;;;;5014622;28;20029;-84
2022/07/31 00:08:40;;;;;;;1.65;1.55;;;23.70;68.50;;;;;;5015129;28;20370;-84
2022/07/31 00:11:05;;;;;;;1.55;1.45;;;23.70;68.60;;;;;;5014708;28;20049;-84
2022/07/31 00:13:31;;;;;;;4.25;1.50;;;23.70;68.50;;;;;;5014108;28;20037;-84
2022/07/31 00:15:57;;;;;;;1.98;1.70;;;23.70;68.30;;;;;;5015889;28;20366;-84
2022/07/31 00:18:22;;;;;;;1.70;1.60;;;23.70;68.10;;;;;;5004872;28;20481;-84
2022/07/31 00:20:48;;;;;;;1.60;1.50;;;23.60;68.00;;;;;;5014248;28;20037;-84
2022/07/31 00:23:14;;;;;;;1.65;1.52;;;23.60;67.90;;;;;;5014871;28;20032;-84
2022/07/31 00:25:39;;;;;;;1.65;1.55;;;23.60;67.80;;;;;;5016225;28;20470;-84
2022/07/31 00:28:05;;;;;;;2.00;1.80;;;23.60;67.90;;;;;;5015399;28;20033;-84
2022/07/31 00:30:31;;;;;;;1.67;1.58;;;23.60;67.90;;;;;;5014102;28;20065;-83
2022/07/31 00:32:57;;;;;;;1.73;1.63;;;23.60;67.80;;;;;;5013897;28;20046;-84
2022/07/31 00:35:22;;;;;;;1.48;1.38;;;23.60;67.90;;;;;;5013796;28;20038;-84
2022/07/31 00:37:48;;;;;;;1.67;1.58;;;23.60;67.90;;;;;;5014912;28;20528;-84
2022/07/31 00:40:16;;;;;;;1.60;1.50;;;23.60;68.00;;;;;;5021207;28;20034;-84
2022/07/31 00:42:42;;;;;;;1.98;1.60;;;23.60;68.10;;;;;;5016438;28;20045;-84
2022/07/31 00:45:09;;;;;;;1.52;1.42;;;23.50;68.00;;;;;;5014470;28;20026;-85
2022/07/31 00:47:34;;;;;;;1.77;1.67;;;23.50;68.10;;;;;;5012291;28;20033;-85
2022/07/31 00:50:00;;;;;;;1.50;1.40;;;23.60;68.10;;;;;;5014661;28;20030;-85
2022/07/31 00:52:26;;;;;;;1.30;1.20;;;23.60;68.20;;;;;;5014098;28;20029;-86
2022/07/31 00:54:51;;;;;;;1.48;1.38;;;23.50;68.00;;;;;;5013112;28;20462;-84
2022/07/31 00:57:17;;;;;;;1.83;1.67;;;23.60;68.00;;;;;;5015671;28;20034;-85
2022/07/31 00:59:43;;;;;;;1.40;1.30;;;23.60;68.00;;;;;;5014649;28;20029;-85
2022/07/31 01:02:09;;;;;;;2.50;1.40;;;23.50;68.00;;;;;;5015404;28;20461;-85
2022/07/31 01:04:35;;;;;;;1.58;1.48;;;23.50;68.00;;;;;;5014648;28;20065;-85
2022/07/31 01:07:01;;;;;;;1.95;1.60;;;23.50;68.00;;;;;;5016161;28;20022;-84
2022/07/31 01:09:28;;;;;;;1.55;1.48;;;23.50;68.20;;;;;;5014388;28;20488;-85
2022/07/31 01:11:57;;;;;;;1.60;1.50;;;23.50;68.30;;;;;;5013806;28;20034;-84
2022/07/31 01:14:28;;;;;;;1.60;1.50;;;23.50;68.30;;;;;;5014456;28;20477;-84
2022/07/31 01:16:56;;;;;;;1.50;1.40;;;23.50;68.30;;;;;;5014371;28;20026;-85
2022/07/31 01:19:43;;;;;;;1.10;1.10;;;23.50;68.30;;;;;;5013869;28;20041;-85
2022/07/31 01:22:48;;;;;;;1.02;1.02;;;23.40;68.20;;;;;;5014404;28;20028;-83
2022/07/31 01:25:28;;;;;;;1.63;1.52;;;23.40;68.30;;;;;;5001962;28;20022;-83
2022/07/31 01:28:09;;;;;;;1.40;1.30;;;23.40;68.30;;;;;;5015574;28;20053;-84
2022/07/31 01:30:44;;;;;;;1.50;1.40;;;23.40;68.30;;;;;;5002286;28;20030;-84
2022/07/31 01:33:14;;;;;;;1.45;1.35;;;23.40;68.30;;;;;;5029905;28;20359;-84
2022/07/31 01:35:48;;;;;;;1.15;1.15;;;23.30;68.20;;;;;;5013171;28;20022;-84
2022/07/31 01:38:20;;;;;;;1.98;1.55;;;23.40;68.30;;;;;;5013768;28;20025;-84
2022/07/31 01:40:52;;;;;;;1.70;1.60;;;23.30;68.20;;;;;;5013274;28;20030;-83
2022/07/31 01:43:22;;;;;;;1.77;1.63;;;23.30;68.20;;;;;;5013740;28;20029;-85
2022/07/31 01:45:52;;;;;;;1.50;1.40;;;23.30;68.10;;;;;;5023931;28;20025;-85
2022/07/31 01:48:18;;;;;;;2.08;1.90;;;23.30;68.20;;;;;;5013931;28;20164;-85
2022/07/31 01:50:46;;;;;;;1.80;1.70;;;23.30;68.40;;;;;;5013052;28;20030;-84
2022/07/31 01:53:16;;;;;;;1.55;1.27;;;23.30;68.80;;;;;;5023316;28;20117;-84
2022/07/31 01:55:44;;;;;;;1.98;1.85;;;23.30;68.80;;;;;;5015325;28;20600;-84
2022/07/31 01:58:11;;;;;;;1.65;1.55;;;23.30;69.00;;;;;;5013177;28;20049;-84
2022/07/31 02:00:38;;;;;;;1.52;1.40;;;23.30;69.00;;;;;;5013777;28;20040;-84
2022/07/31 02:03:05;;;;;;;1.75;1.65;;;23.30;69.70;;;;;;5014123;28;20026;-85
2022/07/31 02:05:33;;;;;;;1.50;1.40;;;23.20;69.20;;;;;;5010799;28;20033;-84
2022/07/31 02:08:01;;;;;;;1.58;1.48;;;23.20;69.20;;;;;;5001576;28;20054;-85
2022/07/31 02:10:30;;;;;;;1.40;1.30;;;23.20;69.30;;;;;;5012336;28;20040;-84
2022/07/31 02:12:56;;;;;;;1.65;1.55;;;23.20;69.50;;;;;;5013969;28;20041;-85
2022/07/31 02:15:23;;;;;;;1.73;1.63;;;23.20;69.50;;;;;;5014646;28;20477;-84
2022/07/31 02:17:50;;;;;;;1.60;1.50;;;23.20;69.60;;;;;;5013314;28;20020;-85
2022/07/31 02:20:16;;;;;;;1.42;1.33;;;23.20;69.70;;;;;;5012800;28;20033;-85
2022/07/31 02:22:42;;;;;;;2.00;1.83;;;23.10;69.70;;;;;;5013936;28;20037;-84
2022/07/31 02:25:09;;;;;;;1.90;1.73;;;23.10;69.70;;;;;;5014711;28;20022;-84
2022/07/31 02:27:38;;;;;;;1.77;1.67;;;23.20;70.00;;;;;;5013982;28;20025;-84
2022/07/31 02:30:05;;;;;;;1.92;1.83;;;23.10;70.00;;;;;;5011635;28;20018;-84
2022/07/31 02:32:32;;;;;;;1.90;1.80;;;23.10;70.20;;;;;;5016354;28;20031;-84
2022/07/31 02:34:59;;;;;;;2.38;1.67;;;23.10;70.40;;;;;;5013236;28;20037;-85
2022/07/31 02:37:28;;;;;;;1.90;1.80;;;23.10;70.50;;;;;;5012246;28;20022;-84
2022/07/31 02:39:54;;;;;;;1.65;1.55;;;23.10;70.20;;;;;;5013131;28;20057;-84
2022/07/31 02:42:21;;;;;;;1.70;1.60;;;23.00;70.00;;;;;;5012852;28;20026;-85
2022/07/31 02:44:49;;;;;;;2.03;1.77;;;23.00;70.00;;;;;;5014138;28;20465;-84
2022/07/31 02:47:15;;;;;;;2.20;2.00;;;23.00;70.00;;;;;;5003297;28;20424;-84
2022/07/31 02:49:41;;;;;;;2.05;1.95;;;23.00;70.60;;;;;;5019214;28;20135;-84
2022/07/31 02:52:08;;;;;;;2.00;1.83;;;23.00;70.00;;;;;;5014784;28;20021;-84
2022/07/31 02:54:38;;;;;;;2.08;1.98;;;23.00;70.10;;;;;;5012759;28;20026;-84
2022/07/31 02:57:04;;;;;;;2.15;1.95;;;23.00;70.30;;;;;;5013418;28;20021;-87
2022/07/31 02:59:30;;;;;;;2.10;2.00;;;23.00;70.20;;;;;;5013961;28;20036;-84
2022/07/31 03:01:56;;;;;;;2.08;1.73;;;23.00;70.20;;;;;;5024785;28;20054;-84
2022/07/31 03:04:23;;;;;;;2.70;1.92;;;23.00;70.20;;;;;;5027953;28;20397;-85
2022/07/31 03:06:49;;;;;;;2.60;2.20;;;23.00;70.30;;;;;;5012817;28;20038;-85
2022/07/31 03:09:15;;;;;;;2.22;1.77;;;23.00;70.50;;;;;;5011750;28;20025;-84
2022/07/31 03:11:41;;;;;;;1.85;1.75;;;23.00;70.60;;;;;;5012223;28;20069;-84
2022/07/31 03:14:09;;;;;;;3.00;2.17;;;23.10;70.80;;;;;;5013144;28;20026;-83
2022/07/31 03:16:36;;;;;;;2.85;1.85;;;23.10;70.70;;;;;;5013673;28;20014;-84
2022/07/31 03:19:02;;;;;;;2.08;1.65;;;23.10;70.50;;;;;;5012264;28;20041;-85
2022/07/31 03:21:30;;;;;;;1.95;1.75;;;23.10;70.20;;;;;;5011287;28;20038;-85
2022/07/31 03:23:57;;;;;;;2.97;2.10;;;23.20;70.30;;;;;;5012329;28;20030;-85
2022/07/31 03:26:26;;;;;;;2.05;1.95;;;23.20;70.30;;;;;;5013321;28;20022;-85
2022/07/31 03:28:52;;;;;;;2.22;2.00;;;23.30;70.30;;;;;;5017748;28;20116;-85
2022/07/31 03:31:18;;;;;;;2.70;2.10;;;23.30;70.40;;;;;;5012138;28;20455;-85
2022/07/31 03:33:44;;;;;;;3.55;2.30;;;23.40;70.10;;;;;;5012185;28;20028;-84
2022/07/31 03:36:11;;;;;;;3.15;2.08;;;23.50;70.00;;;;;;5007209;28;20022;-84
2022/07/31 03:38:37;;;;;;;2.40;2.10;;;23.60;69.80;;;;;;5011491;28;20032;-85
2022/07/31 03:41:03;;;;;;;2.35;2.15;;;23.60;69.70;;;;;;5014733;28;20022;-85
2022/07/31 03:43:30;;;;;;;2.22;2.03;;;23.80;69.60;;;;;;5019625;28;20080;-85
2022/07/31 03:45:59;;;;;;;1.85;1.75;;;23.80;70.40;;;;;;5022304;28;20121;-85
2022/07/31 03:48:26;;;;;;;1.83;1.70;;;24.00;70.30;;;;;;5015428;28;20425;-85
2022/07/31 03:50:52;;;;;;;1.50;1.40;;;24.20;70.50;;;;;;5015726;28;20022;-85
2022/07/31 03:53:18;;;;;;;3.30;2.17;;;24.30;70.30;;;;;;5014075;28;20440;-84
2022/07/31 03:55:44;;;;;;;2.17;1.98;;;24.50;70.00;;;;;;5015642;28;20022;-85
2022/07/31 03:58:11;;;;;;;1.95;1.80;;;24.70;69.80;;;;;;5015432;28;20033;-85
2022/07/31 04:00:37;;;;;;;1.70;1.60;;;25.00;69.40;;;;;;5015549;28;20121;-85
2022/07/31 04:03:10;;;;;;;2.10;1.90;;;25.30;69.10;;;;;;5015039;28;20481;-85
2022/07/31 04:05:37;;;;;;;2.22;1.70;;;25.70;68.10;;;;;;5014876;28;20022;-85
2022/07/31 04:08:02;;;;;;;1.60;1.50;;;26.20;67.10;;;;;;5015528;28;20037;-85
2022/07/31 04:10:28;;;;;;;1.83;1.73;;;26.80;66.00;;;;;;5014722;28;20396;-85
2022/07/31 04:12:54;;;;;;;1.92;1.80;;;27.40;64.40;;;;;;5015903;28;20065;-85
2022/07/31 04:15:19;;;;;;;2.13;1.77;;;28.00;62.90;;;;;;5015790;28;20026;-85
2022/07/31 04:17:45;;;;;;;1.90;1.70;;;28.60;61.90;;;;;;5015009;28;20109;-85
2022/07/31 04:20:11;;;;;;;1.95;1.77;;;29.30;60.90;;;;;;5015151;28;20033;-85
2022/07/31 04:22:37;;;;;;;2.33;1.75;;;29.90;59.70;;;;;;5017180;28;20058;-85
2022/07/31 04:25:04;;;;;;;2.90;1.92;;;30.50;58.40;;;;;;5016506;28;20036;-85
2022/07/31 04:27:29;;;;;;;1.77;1.67;;;30.90;57.40;;;;;;5014201;28;20026;-82
2022/07/31 04:29:56;;;;;;;1.60;1.50;;;31.30;57.30;;;;;;5015376;28;20124;-85
2022/07/31 04:32:22;;;;;;;1.52;1.42;;;31.80;56.50;;;;;;5016301;28;20385;-85
2022/07/31 04:34:49;;;;;;;2.67;1.90;;;32.10;55.30;;;;;;5012120;28;20238;-85
2022/07/31 04:37:15;;;;;;;1.73;1.60;;;32.30;54.90;;;;;;5013922;28;20029;-85
2022/07/31 04:39:41;;;;;;;1.77;1.63;;;32.60;54.70;;;;;;5015167;28;20021;-85
2022/07/31 04:42:07;;;;;;;1.73;1.38;;;33.00;54.40;;;;;;5014787;28;20037;-85
2022/07/31 04:44:33;;;;;;;1.48;1.38;;;33.40;54.00;;;;;;5012763;28;20030;-86
2022/07/31 04:47:04;;;;;;;1.80;1.48;;;33.80;53.60;;;;;;5014949;28;20030;-86
2022/07/31 04:49:31;;;;;;;1.40;1.30;;;34.30;53.40;;;;;;5015508;28;20029;-87
2022/07/31 04:51:57;;;;;;;1.40;1.30;;;34.80;53.10;;;;;;5015949;28;20021;-87
2022/07/31 04:54:23;;;;;;;1.35;1.30;;;35.40;52.50;;;;;;5013669;28;20032;-85
2022/07/31 04:56:49;;;;;;;1.27;1.17;;;35.70;51.00;;;;;;5014984;28;20108;-86
2022/07/31 04:59:19;;;;;;;1.80;1.70;;;35.70;51.10;;;;;;5016297;28;20026;-84
2022/07/31 05:01:44;;;;;;;;;;;35.70;50.20;;;;;;5014269;28;20041;-85
2022/07/31 05:04:10;;;;;;;1.00;1.00;;;35.70;49.30;;;;;;5012447;28;19991;-85
2022/07/31 05:06:42;;;;;;;1.25;1.17;;;35.70;50.50;;;;;;5013509;28;20034;-86
2022/07/31 05:09:11;;;;;;;1.40;1.30;;;35.90;50.70;;;;;;5013079;28;20022;-85
2022/07/31 05:11:37;;;;;;;;;;;36.20;50.50;;;;;;5013352;28;20040;-86
2022/07/31 05:14:05;;;;;;;1.55;1.45;;;36.40;49.40;;;;;;5014799;28;19905;-86
2022/07/31 05:16:31;;;;;;;1.48;1.35;;;36.40;49.50;;;;;;5014079;28;20018;-85
2022/07/31 05:18:58;;;;;;;1.20;1.20;;;36.10;49.30;;;;;;5006370;28;20034;-86
2022/07/31 05:21:29;;;;;;;2.15;1.40;;;35.70;49.40;;;;;;5014395;28;20045;-86
2022/07/31 05:23:56;;;;;;;1.27;1.23;;;35.40;49.60;;;;;;5014485;28;20073;-86
2022/07/31 05:26:22;;;;;;;2.42;1.75;;;35.10;49.80;;;;;;5013414;28;20034;-85
2022/07/31 05:28:49;;;;;;;1.35;1.25;;;34.70;49.50;;;;;;5013887;28;20022;-86
2022/07/31 05:31:16;;;;;;;1.70;1.60;;;34.50;49.70;;;;;;5013630;28;20018;-85
2022/07/31 05:33:42;;;;;;;1.50;1.40;;;34.50;49.60;;;;;;5013721;28;20473;-85
2022/07/31 05:36:08;;;;;;;1.83;1.65;;;34.50;49.50;;;;;;5005359;28;20184;-86
2022/07/31 05:38:34;;;;;;;1.13;1.00;;;34.40;49.40;;;;;;5013368;28;20107;-85
2022/07/31 05:41:00;;;;;;;1.67;1.58;;;34.10;49.60;;;;;;5014984;28;20367;-85
2022/07/31 05:43:26;;;;;;;3.05;2.05;;;33.70;49.80;;;;;;5013488;28;20032;-86
2022/07/31 05:45:52;;;;;;;1.60;1.50;;;33.10;50.20;;;;;;5008523;28;20083;-85
2022/07/31 05:48:18;;;;;;;2.03;1.67;;;32.30;50.90;;;;;;5015503;28;20030;-86
2022/07/31 05:50:46;;;;;;;1.50;1.40;;;31.70;51.70;;;;;;5012796;28;20034;-85
2022/07/31 05:53:13;;;;;;;1.85;1.70;;;31.00;52.40;;;;;;5011519;28;20030;-85
2022/07/31 05:55:40;;;;;;;2.25;2.10;;;30.40;53.30;;;;;;5015474;28;20040;-85
2022/07/31 05:58:06;;;;;;;1.90;1.80;;;29.90;54.30;;;;;;5014766;28;20026;-85
2022/07/31 06:00:32;;;;;;;1.83;1.70;;;29.40;55.40;;;;;;5013088;28;20056;-85
2022/07/31 06:02:58;;;;;;;2.03;1.92;;;29.00;55.60;;;;;;5012748;28;20030;-85
2022/07/31 06:05:25;;;;;;;2.15;1.90;;;28.70;56.10;;;;;;5011792;28;20515;-85
2022/07/31 06:07:51;;;;;;;1.67;1.58;;;28.40;56.70;;;;;;5012888;28;20029;-85
2022/07/31 06:10:17;;;;;;;1.70;1.60;;;28.20;57.50;;;;;;5013646;28;20384;-86
2022/07/31 06:12:42;;;;;;;1.73;1.63;;;28.10;57.80;;;;;;5014568;28;20038;-85
2022/07/31 06:15:08;;;;;;;2.95;2.08;;;28.00;58.20;;;;;;5012758;28;20567;-85
2022/07/31 06:17:36;;;;;;;2.42;1.80;;;27.90;58.60;;;;;;5012087;28;20036;-86
2022/07/31 06:20:02;;;;;;;2.53;2.33;;;27.80;58.80;;;;;;5013190;28;20040;-86
2022/07/31 06:22:28;;;;;;;1.92;1.83;;;27.70;58.90;;;;;;5012697;28;20492;-86
2022/07/31 06:24:53;;;;;;;2.38;2.05;;;27.60;59.10;;;;;;5013276;28;20536;-86
2022/07/31 06:27:19;;;;;;;3.08;2.35;;;27.50;59.20;;;;;;5002859;28;20516;-86
2022/07/31 06:29:45;;;;;;;2.35;2.15;;;27.40;59.30;;;;;;5010085;28;20094;-85
2022/07/31 06:32:10;;;;;;;2.03;1.90;;;27.20;59.50;;;;;;5021030;28;20033;-85
2022/07/31 06:34:36;;;;;;;3.10;2.00;;;27.10;59.90;;;;;;5017398;28;20030;-85
2022/07/31 06:37:01;;;;;;;3.35;2.30;;;27.00;60.20;;;;;;5013671;28;20088;-85
2022/07/31 06:39:27;;;;;;;2.20;2.00;;;26.90;60.20;;;;;;5013589;28;20033;-85
2022/07/31 06:41:53;;;;;;;2.10;1.98;;;26.90;60.50;;;;;;5013592;28;20592;-86
2022/07/31 06:44:19;;;;;;;2.25;2.05;;;26.90;60.70;;;;;;5014492;28;20427;-85
2022/07/31 06:46:46;;;;;;;3.10;2.28;;;26.90;60.50;;;;;;5013431;28;20030;-85
2022/07/31 06:49:12;;;;;;;2.63;2.30;;;26.80;60.60;;;;;;5007210;28;20042;-85
2022/07/31 06:51:39;;;;;;;2.33;2.13;;;26.80;60.70;;;;;;5009637;28;20050;-85
2022/07/31 06:54:06;;;;;;;2.80;2.50;;;26.70;61.30;;;;;;5011478;28;20030;-85
2022/07/31 06:56:34;;;;;;;2.65;2.40;;;26.70;61.20;;;;;;5011871;28;20393;-85
2022/07/31 06:59:00;;;;;;;2.00;1.90;;;26.60;61.10;;;;;;5012161;28;20117;-86
2022/07/31 07:01:26;;;;;;;2.40;2.20;;;26.60;61.30;;;;;;5015930;28;20059;-86
2022/07/31 07:03:52;;;;;;;2.40;2.20;;;26.50;61.20;;;;;;5011671;28;20413;-85
2022/07/31 07:06:18;;;;;;;2.92;2.40;;;26.50;61.10;;;;;;5011422;28;20029;-84
2022/07/31 07:08:43;;;;;;;2.70;2.30;;;26.50;60.90;;;;;;5010557;28;20029;-85
2022/07/31 07:11:09;;;;;;;2.45;1.88;;;26.40;61.20;;;;;;5011503;28;20046;-85
2022/07/31 07:13:35;;;;;;;2.55;2.33;;;26.30;61.50;;;;;;5011818;28;20060;-85
2022/07/31 07:16:01;;;;;;;2.63;2.42;;;26.30;61.60;;;;;;5011968;28;20026;-86
2022/07/31 07:18:26;;;;;;;2.50;2.30;;;26.30;61.60;;;;;;5010469;28;20156;-85
2022/07/31 07:20:52;;;;;;;2.78;2.40;;;26.30;61.50;;;;;;5011601;28;20172;-85
2022/07/31 07:23:19;;;;;;;3.13;2.83;;;26.30;61.90;;;;;;5010320;28;20025;-85
2022/07/31 07:25:45;;;;;;;3.20;2.70;;;26.30;61.70;;;;;;5011541;28;20488;-85
2022/07/31 07:28:11;;;;;;;4.13;3.00;;;26.30;61.40;;;;;;5011476;28;20062;-85
2022/07/31 07:30:36;;;;;;;3.78;3.00;;;26.20;61.40;;;;;;5022121;28;20022;-86
2022/07/31 07:33:04;;;;;;;4.07;3.33;;;26.20;61.80;;;;;;5013941;28;20030;-85
2022/07/31 07:35:30;;;;;;;5.10;3.08;;;26.20;62.10;;;;;;5005424;28;20026;-85
2022/07/31 07:37:56;;;;;;;4.18;2.90;;;26.20;62.30;;;;;;5012657;28;20034;-85
2022/07/31 07:40:22;;;;;;;4.68;3.30;;;26.20;62.20;;;;;;5011452;28;20041;-85
2022/07/31 07:42:48;;;;;;;3.78;2.90;;;26.10;62.30;;;;;;5011509;28;20049;-86
2022/07/31 07:45:13;;;;;;;4.18;3.33;;;26.10;62.50;;;;;;5019076;28;20524;-85
2022/07/31 07:47:40;;;;;;;5.05;2.88;;;26.10;62.10;;;;;;5012543;28;20385;-85
2022/07/31 07:50:07;;;;;;;4.60;3.10;;;26.10;61.70;;;;;;5026529;28;20056;-86
2022/07/31 07:52:33;;;;;;;3.33;2.80;;;26.10;61.70;;;;;;5010102;28;20543;-85
2022/07/31 07:54:59;;;;;;;3.72;2.95;;;26.10;61.50;;;;;;5011615;28;20444;-85
2022/07/31 07:57:25;;;;;;;3.20;2.88;;;26.10;61.50;;;;;;5013332;28;20058;-85
2022/07/31 07:59:51;;;;;;;3.00;2.70;;;26.10;61.70;;;;;;5013256;28;20037;-85
2022/07/31 08:02:17;;;;;;;3.72;2.55;;;26.00;61.50;;;;;;5011199;28;20457;-86
2022/07/31 08:04:42;;;;;;;3.42;2.50;;;26.00;61.70;;;;;;5008718;28;20040;-86
2022/07/31 08:07:08;;;;;;;2.75;2.55;;;26.00;61.60;;;;;;5011791;28;20113;-85
2022/07/31 08:09:35;;;;;;;2.90;2.60;;;26.00;61.30;;;;;;5004881;28;20033;-86
2022/07/31 08:12:02;;;;;;;4.10;2.92;;;26.00;60.70;;;;;;5012974;28;20049;-87
2022/07/31 08:14:27;;;;;;;3.63;2.95;;;26.00;60.70;;;;;;5010897;28;20049;-86
2022/07/31 08:16:54;;;;;;;4.32;2.97;;;26.00;61.00;;;;;;5011077;28;20018;-85
2022/07/31 08:19:19;;;;;;;2.72;2.53;;;25.90;61.30;;;;;;5012631;28;20076;-85
2022/07/31 08:21:45;;;;;;;3.85;2.90;;;25.90;60.90;;;;;;5011766;28;20085;-86
2022/07/31 08:24:11;;;;;;;3.05;2.75;;;25.90;60.80;;;;;;5014378;28;20029;-86
2022/07/31 08:29:23;;;;;;;3.05;2.72;;;25.90;61.00;;;;;;5015715;28;20512;-86
2022/07/31 08:31:50;;;;;;;3.17;2.88;;;25.90;61.10;;;;;;5016549;28;20018;-86
2022/07/31 08:34:17;;;;;;;2.80;2.60;;;25.90;61.10;;;;;;5011409;28;20026;-86
2022/07/31 08:36:42;;;;;;;3.08;2.67;;;25.90;61.50;;;;;;5015065;28;20492;-86
2022/07/31 08:39:08;;;;;;;3.63;3.00;;;25.90;61.60;;;;;;5017426;28;20077;-86
2022/07/31 08:41:37;;;;;;;3.08;2.50;;;26.00;61.10;;;;;;5014637;28;20041;-87
2022/07/31 08:44:04;;;;;;;3.63;3.10;;;26.00;60.70;;;;;;5016312;28;20553;-86
2022/07/31 08:46:33;;;;;;;2.55;2.35;;;26.00;60.90;;;;;;5019392;28;20444;-85
2022/07/31 08:49:02;;;;;;;2.30;2.10;;;26.00;60.50;;;;;;5015753;28;20033;-86
2022/07/31 08:51:29;;;;;;;2.78;2.53;;;26.00;60.10;;;;;;5014476;28;20024;-86
2022/07/31 08:53:56;;;;;;;3.53;2.75;;;26.00;59.80;;;;;;5012728;28;20049;-86
2022/07/31 08:56:24;;;;;;;2.83;2.55;;;26.00;59.70;;;;;;5014777;28;20061;-86
2022/07/31 08:58:50;;;;;;;3.08;2.60;;;26.00;59.70;;;;;;5009517;28;20034;-87
2022/07/31 09:01:16;;;;;;;3.80;2.75;;;26.00;58.90;;;;;;5014026;28;20460;-87
2022/07/31 09:03:42;;;;;;;3.08;2.42;;;26.00;58.30;;;;;;5009398;28;20045;-86
2022/07/31 09:06:08;;;;;;;2.33;2.10;;;26.00;58.50;;;;;;5016982;28;20030;-87
2022/07/31 09:08:35;;;;;;;3.17;2.60;;;26.00;58.40;;;;;;5022731;28;20031;-86
2022/07/31 09:11:08;;;;;;;2.83;2.63;;;26.00;58.70;;;;;;5014795;28;20050;-86
2022/07/31 09:13:34;;;;;;;3.47;2.10;;;26.00;58.20;;;;;;5008905;28;20026;-86
2022/07/31 09:16:01;;;;;;;3.20;2.30;;;26.00;58.00;;;;;;5004153;28;20028;-86
2022/07/31 09:18:27;;;;;;;2.38;2.17;;;26.00;57.80;;;;;;5009631;28;20105;-86
2022/07/31 09:20:56;;;;;;;2.25;2.10;;;25.90;57.20;;;;;;5013654;28;20104;-87
2022/07/31 09:23:23;;;;;;;2.15;2.05;;;25.90;56.70;;;;;;5014300;28;20061;-87
2022/07/31 09:25:54;;;;;;;3.00;2.13;;;26.00;56.50;;;;;;5014522;28;20024;-90
2022/07/31 09:28:19;;;;;;;;;;;25.90;55.70;;;;;;5012050;28;20026;-87
2022/07/31 09:30:54;;;;;;;1.92;1.80;;;26.00;54.90;;;;;;5013353;28;19963;-86
2022/07/31 09:33:20;;;;;;;2.30;2.10;;;26.00;55.80;;;;;;5014435;28;20018;-87
2022/07/31 09:35:51;;;;;;;2.78;2.20;;;26.00;55.60;;;;;;5012827;28;20036;-86
2022/07/31 09:38:18;;;;;;;2.92;2.33;;;26.00;55.70;;;;;;5012425;28;20515;-87
2022/07/31 09:40:44;;;;;;;2.33;2.10;;;26.00;55.50;;;;;;5015387;28;20423;-87
2022/07/31 09:43:23;;;;;;;3.22;2.00;;;26.00;55.20;;;;;;5012993;28;20037;-86
2022/07/31 09:46:00;;;;;;;2.40;2.20;;;26.10;55.00;;;;;;5022417;28;20018;-86
2022/07/31 09:48:26;;;;;;;2.58;2.38;;;26.00;54.90;;;;;;5016219;28;20507;-86
2022/07/31 09:50:56;;;;;;;3.08;2.28;;;26.10;54.80;;;;;;5014762;28;20026;-86
2022/07/31 09:53:22;;;;;;;3.25;2.55;;;26.10;54.60;;;;;;5015132;28;20152;-86
2022/07/31 09:55:53;;;;;;;3.78;2.70;;;26.10;54.80;;;;;;5010217;28;20485;-86
2022/07/31 09:58:20;;;;;;;3.28;2.97;;;26.10;55.10;;;;;;5013832;28;20427;-87
2022/07/31 10:00:48;;;;;;;2.83;2.63;;;26.10;55.00;;;;;;5014703;28;20030;-87
2022/07/31 10:03:17;;;;;;;3.25;2.47;;;26.10;54.50;;;;;;5015249;28;20384;-87
2022/07/31 10:05:45;;;;;;;2.42;2.15;;;26.10;54.80;;;;;;5012442;28;20033;-86
2022/07/31 10:08:16;;;;;;;4.13;2.97;;;26.10;54.60;;;;;;5012921;28;20112;-87
2022/07/31 10:10:46;;;;;;;3.95;2.70;;;26.10;54.40;;;;;;5014001;28;20025;-86
2022/07/31 10:13:14;;;;;;;2.88;2.58;;;26.10;54.10;;;;;;5013893;28;20374;-87
2022/07/31 10:15:44;;;;;;;6.68;2.58;;;26.10;54.70;;;;;;5013687;28;20104;-87
2022/07/31 10:18:10;;;;;;;3.90;2.58;;;26.10;54.40;;;;;;5034970;28;20421;-87
2022/07/31 10:20:38;;;;;;;2.53;2.33;;;26.10;54.10;;;;;;5012624;28;20088;-87
2022/07/31 10:23:18;;;;;;;3.00;2.35;;;26.10;54.40;;;;;;5014197;28;20053;-86
2022/07/31 10:25:48;;;;;;;2.50;2.20;;;26.10;54.20;;;;;;5013974;28;20452;-86
2022/07/31 10:28:14;;;;;;;3.10;2.25;;;26.10;54.10;;;;;;5012707;28;20026;-86
2022/07/31 10:30:40;;;;;;;3.65;2.60;;;26.10;54.20;;;;;;5016280;28;20021;-85
2022/07/31 10:33:06;;;;;;;2.53;2.30;;;26.10;54.10;;;;;;5013012;28;20367;-87
2022/07/31 10:35:54;;;;;;;2.33;2.22;;;26.10;54.10;;;;;;5007921;28;20445;-87
2022/07/31 10:38:27;;;;;;;2.08;1.98;;;26.10;53.60;;;;;;5001166;28;20087;-87
2022/07/31 10:41:02;;;;;;;2.25;2.03;;;26.00;53.50;;;;;;5013781;28;20021;-86
2022/07/31 10:43:38;;;;;;;4.00;2.42;;;26.10;53.60;;;;;;5027853;28;20029;-86
2022/07/31 10:46:03;;;;;;;3.03;2.58;;;26.10;53.60;;;;;;5013497;28;20025;-86
2022/07/31 10:48:29;;;;;;;4.55;2.40;;;26.10;53.90;;;;;;5010180;28;20512;-87
2022/07/31 10:51:08;;;;;;;3.00;2.70;;;26.10;54.00;;;;;;5012384;28;20172;-87
2022/07/31 10:53:34;;;;;;;2.78;2.45;;;26.10;53.80;;;;;;5012074;28;20022;-87
2022/07/31 10:56:02;;;;;;;2.92;2.63;;;26.10;53.70;;;;;;5013621;28;20022;-87
2022/07/31 10:58:29;;;;;;;2.40;2.20;;;26.10;53.60;;;;;;5009909;28;20045;-87
2022/07/31 11:01:08;;;;;;;2.80;2.15;;;26.20;54.00;;;;;;5024199;28;20018;-86
2022/07/31 11:03:39;;;;;;;2.42;2.22;;;26.20;53.90;;;;;;5012667;28;20358;-87
2022/07/31 11:06:05;;;;;;;7.45;2.50;;;26.20;53.80;;;;;;5012470;28;20384;-84
2022/07/31 11:08:46;;;;;;;2.72;2.20;;;26.20;53.50;;;;;;5008286;28;20121;-86
2022/07/31 11:11:12;;;;;;;2.63;1.98;;;26.20;53.10;;;;;;5010766;28;20124;-86
2022/07/31 11:13:45;;;;;;;2.85;2.28;;;26.20;53.30;;;;;;5022186;28;20436;-86
2022/07/31 11:16:10;;;;;;;2.63;1.98;;;26.20;53.20;;;;;;5012927;28;20489;-86
2022/07/31 11:18:36;;;;;;;2.47;2.28;;;26.30;53.20;;;;;;5011485;28;20056;-87
2022/07/31 11:21:08;;;;;;;2.42;2.15;;;26.30;53.30;;;;;;5012485;28;20037;-87
2022/07/31 11:23:34;;;;;;;4.10;2.38;;;26.30;53.10;;;;;;5013419;28;20038;-86
2022/07/31 11:26:02;;;;;;;2.45;2.25;;;26.30;53.00;;;;;;5010784;28;20477;-86
2022/07/31 11:28:28;;;;;;;1.80;1.70;;;26.30;53.20;;;;;;5022776;28;20021;-87
2022/07/31 11:31:03;;;;;;;2.78;2.38;;;26.30;53.00;;;;;;4996253;28;20030;-86
2022/07/31 11:33:40;;;;;;;2.05;1.95;;;26.40;53.70;;;;;;5006334;28;20029;-86
2022/07/31 11:36:13;;;;;;;2.25;1.90;;;26.40;53.10;;;;;;5010761;28;20033;-86
2022/07/31 11:38:50;;;;;;;2.03;1.92;;;26.40;52.90;;;;;;5010605;28;20052;-87
2022/07/31 11:41:20;;;;;;;2.35;2.15;;;26.40;52.90;;;;;;5013507;28;20026;-87
2022/07/31 11:43:48;;;;;;;1.88;1.77;;;26.40;53.20;;;;;;5012340;28;20024;-87
2022/07/31 11:46:26;;;;;;;2.75;2.20;;;26.40;53.50;;;;;;5012749;28;20105;-87
2022/07/31 11:48:53;;;;;;;2.95;1.83;;;26.40;53.50;;;;;;4999413;28;20026;-87
2022/07/31 11:51:19;;;;;;;2.35;2.00;;;26.40;53.40;;;;;;5011339;28;20052;-86
2022/07/31 11:53:45;;;;;;;2.50;2.17;;;26.40;53.30;;;;;;5013321;28;20041;-87
2022/07/31 11:56:11;;;;;;;2.88;2.20;;;26.40;53.20;;;;;;5013620;28;20215;-85
2022/07/31 11:58:40;;;;;;;1.88;1.77;;;26.40;53.10;;;;;;5010159;28;20037;-88
2022/07/31 12:01:06;;;;;;;2.50;2.30;;;26.40;53.10;;;;;;5009368;28;20572;-88
2022/07/31 12:03:32;;;;;;;1.67;1.58;;;26.40;53.40;;;;;;5011825;28;20034;-87
2022/07/31 12:05:59;;;;;;;2.75;2.10;;;26.40;52.80;;;;;;5016072;28;20030;-87
2022/07/31 12:08:25;;;;;;;2.35;2.15;;;26.40;52.50;;;;;;5015061;28;20092;-88
2022/07/31 12:10:53;;;;;;;3.80;2.13;;;26.40;52.40;;;;;;5015217;28;20026;-88
2022/07/31 12:13:20;;;;;;;2.40;2.20;;;26.40;52.20;;;;;;5016972;28;20080;-86
2022/07/31 12:16:03;;;;;;;2.38;2.17;;;26.50;52.30;;;;;;5016210;28;20020;-88
2022/07/31 12:18:45;;;;;;;2.30;1.95;;;26.50;51.90;;;;;;5014072;28;20402;-87
2022/07/31 12:21:11;;;;;;;2.53;2.00;;;26.50;52.10;;;;;;5015404;28;20507;-87
2022/07/31 12:23:46;;;;;;;2.53;1.77;;;26.50;52.30;;;;;;5014523;28;20404;-88
2022/07/31 12:26:23;;;;;;;2.28;2.03;;;26.50;52.10;;;;;;5014620;28;20033;-88
2022/07/31 12:29:08;;;;;;;2.15;1.95;;;26.50;52.00;;;;;;5015555;28;20021;-88
2022/07/31 12:31:50;;;;;;;2.10;1.90;;;26.50;51.90;;;;;;5014296;28;20036;-89
2022/07/31 12:34:39;;;;;;;2.47;1.88;;;26.60;52.00;;;;;;5014096;28;20037;-88
2022/07/31 12:37:16;;;;;;;1.95;1.85;;;26.60;51.70;;;;;;5010291;28;20532;-88
2022/07/31 12:39:49;;;;;;;1.95;1.85;;;26.50;51.80;;;;;;5010620;28;20137;-88
2022/07/31 12:42:26;;;;;;;2.33;2.13;;;26.50;51.70;;;;;;5013354;28;20121;-88
2022/07/31 12:44:53;;;;;;;2.03;1.80;;;26.60;51.70;;;;;;5022536;28;20095;-87
2022/07/31 12:47:24;;;;;;;1.80;1.73;;;26.60;52.00;;;;;;5013466;28;20114;-88
2022/07/31 12:49:50;;;;;;;2.25;2.05;;;26.60;52.10;;;;;;5013976;28;20061;-88
2022/07/31 12:52:16;;;;;;;2.05;1.95;;;26.60;51.80;;;;;;5017548;28;20456;-89
2022/07/31 12:54:42;;;;;;;1.70;1.60;;;26.60;51.90;;;;;;5016236;28;20110;-89